createdAt,value
2018-01-23T00:00:48.047Z,22.3
2018-01-23T00:01:47.979Z,22.2
2018-01-23T00:02:47.902Z,22.1
2018-01-23T00:03:47.880Z,22.1
2018-01-23T00:04:47.774Z,22.1
2018-01-23T00:05:47.734Z,22
2018-01-23T00:06:47.570Z,22
2018-01-23T01:10:12.665Z,21.9
2018-01-23T01:11:12.514Z,21.9
2018-01-23T01:12:12.425Z,21.9
2018-01-23T01:13:12.426Z,22
2018-01-23T01:14:12.300Z,22
2018-01-23T01:15:12.323Z,22
2018-01-23T01:16:12.165Z,22.1
2018-01-23T01:17:12.164Z,22.1
2018-01-23T01:18:12.107Z,22.2
2018-01-23T01:19:11.949Z,22.2
2018-01-23T01:20:11.900Z,22.3
2018-01-23T01:21:11.870Z,22.4
2018-01-23T01:22:11.759Z,22.5
2018-01-23T01:23:11.653Z,22.5
2018-01-23T01:24:11.594Z,22.6
2018-01-23T01:25:11.541Z,22.6
2018-01-23T01:26:11.513Z,22.6
2018-01-23T01:27:11.476Z,22.6
2018-01-23T01:28:11.316Z,22.7
2018-01-23T01:29:11.220Z,22.8
2018-01-23T01:30:11.310Z,22.9
2018-01-23T01:31:11.156Z,22.9
2018-01-23T01:32:11.078Z,22.8
2018-01-23T01:33:10.929Z,22.8
2018-01-23T01:34:10.880Z,22.9
2018-01-23T01:35:10.943Z,22.9
2018-01-23T01:36:10.764Z,22.8
2018-01-23T01:37:10.665Z,22.6
2018-01-23T01:38:10.723Z,22.5
2018-01-23T01:39:10.523Z,22.4
2018-01-23T01:40:10.486Z,22.3
2018-01-23T01:41:10.563Z,22.2
2018-01-23T01:42:10.390Z,22.1
2018-01-23T01:43:10.290Z,22.1
2018-01-23T01:44:10.139Z,22.1
2018-01-23T01:45:10.254Z,22
2018-01-23T01:46:10.120Z,22
2018-01-23T01:47:10.129Z,22
2018-01-23T01:48:09.874Z,22
2018-01-23T01:49:09.815Z,21.9
2018-01-23T01:50:09.776Z,21.9
2018-01-23T01:51:09.692Z,22
2018-01-23T01:52:09.583Z,22.1
2018-01-23T01:53:09.694Z,22.1
2018-01-23T01:54:09.451Z,22.1
2018-01-23T01:55:09.407Z,22.1
2018-01-23T01:56:09.377Z,22.2
2018-01-23T01:57:09.226Z,22.3
2018-01-23T01:58:09.338Z,22.3
2018-01-23T01:59:09.183Z,22.3
2018-01-23T02:00:09.187Z,22.4
2018-01-23T02:01:08.983Z,22.5
2018-01-23T02:02:08.916Z,22.6
2018-01-23T02:03:08.797Z,22.6
2018-01-23T02:04:08.787Z,22.8
2018-01-23T02:05:08.640Z,22.8
2018-01-23T02:06:08.585Z,22.9
2018-01-23T02:07:08.496Z,22.8
2018-01-23T02:08:08.471Z,22.7
2018-01-23T02:09:08.322Z,22.5
2018-01-23T02:10:08.373Z,22.4
2018-01-23T02:11:08.195Z,22.3
2018-01-23T02:12:08.103Z,22.4
2018-01-23T02:13:08.081Z,22.4
2018-01-23T02:14:08.023Z,22.4
2018-01-23T02:15:07.929Z,22.3
2018-01-23T02:16:07.863Z,22.1
2018-01-23T02:17:07.728Z,21.8
2018-01-23T02:18:07.640Z,21.7
2018-01-23T02:19:07.654Z,21.6
2018-01-23T02:20:07.532Z,21.7
2018-01-23T02:21:07.383Z,21.8
2018-01-23T02:22:07.332Z,21.8
2018-01-23T02:23:07.239Z,21.9
2018-01-23T02:24:07.219Z,21.9
2018-01-23T02:25:07.352Z,22.1
2018-01-23T02:26:07.024Z,22.3
2018-01-23T02:27:07.049Z,22.5
2018-01-23T02:28:06.849Z,22.6
2018-01-23T02:29:06.869Z,22.8
2018-01-23T02:30:06.709Z,23
2018-01-23T02:31:06.602Z,22.9
2018-01-23T02:32:06.593Z,22.9
2018-01-23T02:33:06.533Z,23
2018-01-23T02:34:06.521Z,23.1
2018-01-23T02:35:06.320Z,23.1
2018-01-23T02:36:06.213Z,22.9
2018-01-23T02:37:06.200Z,22.7
2018-01-23T02:38:06.163Z,22.6
2018-01-23T02:39:06.110Z,22.4
2018-01-23T02:40:05.907Z,22.3
2018-01-23T02:41:05.851Z,22.2
2018-01-23T02:42:05.868Z,22.1
2018-01-23T02:43:05.686Z,22.1
2018-01-23T02:44:05.594Z,22.1
2018-01-23T03:43:35.825Z,22.4
2018-01-23T03:44:35.610Z,22.4
2018-01-23T03:45:35.841Z,22.4
2018-01-23T03:46:35.471Z,22.4
2018-01-23T03:47:35.346Z,22.4
2018-01-23T03:48:35.454Z,22.4
2018-01-23T03:49:35.317Z,22.4
2018-01-23T03:50:35.111Z,22.4
2018-01-23T03:51:35.176Z,22.4
2018-01-23T03:52:35.068Z,22.4
2018-01-23T03:53:35.013Z,22.4
2018-01-23T03:54:34.915Z,22.3
2018-01-23T03:55:34.859Z,22.4
2018-01-23T03:56:34.731Z,22.5
2018-01-23T03:57:34.706Z,22.6
2018-01-23T03:58:34.791Z,22.7
2018-01-23T03:59:34.543Z,22.8
2018-01-23T04:00:34.343Z,22.9
2018-01-23T04:01:34.277Z,22.8
2018-01-23T04:02:34.282Z,22.7
2018-01-23T04:03:34.126Z,22.6
2018-01-23T04:04:34.300Z,22.5
2018-01-23T04:05:34.061Z,22.4
2018-01-23T04:06:33.891Z,22.3
2018-01-23T04:07:34.063Z,22.3
2018-01-23T04:08:33.737Z,22.2
2018-01-23T04:09:33.621Z,22.3
2018-01-23T04:10:33.573Z,22.3
2018-01-23T04:11:33.577Z,22.2
2018-01-23T04:12:33.415Z,22.1
2018-01-23T04:13:33.334Z,22.1
2018-01-23T04:14:33.321Z,22.1
2018-01-23T04:15:33.185Z,22.1
2018-01-23T04:16:33.161Z,22.1
2018-01-23T04:17:33.024Z,22.2
2018-01-23T04:18:32.929Z,22.2
2018-01-23T04:19:32.873Z,22.2
2018-01-23T04:20:32.759Z,22.2
2018-01-23T04:21:32.987Z,22.2
2018-01-23T04:22:32.631Z,22.2
2018-01-23T04:23:32.535Z,22.2
2018-01-23T04:24:32.742Z,22.3
2018-01-23T04:25:32.454Z,22.3
2018-01-23T04:26:32.566Z,22.4
2018-01-23T04:27:32.244Z,22.4
2018-01-23T04:28:32.245Z,22.4
2018-01-23T04:29:32.179Z,22.5
2018-01-23T04:30:32.007Z,22.6
2018-01-23T04:31:31.898Z,22.6
2018-01-23T04:32:31.962Z,22.7
2018-01-23T04:33:31.852Z,22.8
2018-01-23T04:34:31.687Z,22.9
2018-01-23T04:35:31.669Z,22.9
2018-01-23T04:36:31.645Z,22.8
2018-01-23T04:37:31.444Z,22.6
2018-01-23T04:38:31.358Z,22.5
2018-01-23T04:39:31.297Z,22.4
2018-01-23T04:40:31.331Z,22.4
2018-01-23T04:41:31.112Z,22.3
2018-01-23T04:42:31.090Z,22.3
2018-01-23T04:43:30.972Z,22.3
2018-01-23T04:44:30.927Z,22.2
2018-01-23T04:45:30.828Z,22.1
2018-01-23T04:46:30.725Z,22.2
2018-01-23T04:47:30.843Z,22.1
2018-01-23T04:48:30.620Z,22.1
2018-01-23T04:49:30.561Z,22.1
2018-01-23T04:50:30.446Z,22.2
2018-01-23T04:51:30.406Z,22.3
2018-01-23T04:52:30.441Z,22.3
2018-01-23T04:53:30.376Z,22.4
2018-01-23T04:54:30.282Z,22.4
2018-01-23T04:55:30.228Z,22.4
2018-01-23T04:56:30.015Z,22.4
2018-01-23T04:57:30.136Z,22.5
2018-01-23T04:58:30.185Z,22.5
2018-01-23T04:59:29.850Z,22.4
2018-01-23T05:00:29.755Z,22.4
2018-01-23T05:01:29.671Z,22.4
2018-01-23T05:02:29.677Z,22.5
2018-01-23T05:03:29.840Z,22.5
2018-01-23T05:04:29.489Z,22.6
2018-01-23T05:05:29.395Z,22.6
2018-01-23T05:06:29.336Z,22.6
2018-01-23T05:07:29.373Z,22.6
2018-01-23T05:08:29.224Z,22.7
2018-01-23T05:09:29.216Z,22.8
2018-01-23T05:10:29.040Z,22.9
2018-01-23T05:11:29.088Z,22.9
2018-01-23T05:12:29.044Z,22.9
2018-01-23T05:13:28.864Z,22.8
2018-01-23T05:14:28.752Z,22.7
2018-01-23T05:15:28.711Z,22.6
2018-01-23T05:16:28.895Z,22.4
2018-01-23T05:17:28.587Z,22.4
2018-01-23T05:18:28.511Z,22.3
2018-01-23T05:19:28.405Z,22.2
2018-01-23T05:20:28.463Z,22.1
2018-01-23T05:21:28.360Z,22
2018-01-23T05:22:28.250Z,21.9
2018-01-23T05:23:28.255Z,21.9
2018-01-23T05:24:28.060Z,21.9
2018-01-23T05:25:28.085Z,21.8
2018-01-23T05:26:28.069Z,21.8
2018-01-23T05:27:27.959Z,21.8
2018-01-23T05:28:27.796Z,21.8
2018-01-23T05:29:27.699Z,21.8
2018-01-23T05:30:27.644Z,21.8
2018-01-23T05:31:27.529Z,21.8
2018-01-23T05:32:27.539Z,21.8
2018-01-23T05:33:27.435Z,21.8
2018-01-23T05:34:27.345Z,21.9
2018-01-23T05:35:27.397Z,21.9
2018-01-23T05:36:27.176Z,21.9
2018-01-23T05:37:27.183Z,22.1
2018-01-23T05:38:27.067Z,22.1
2018-01-23T05:39:27.009Z,22.1
2018-01-23T05:40:26.895Z,22.2
2018-01-23T05:41:26.945Z,22.3
2018-01-23T05:42:26.876Z,22.3
2018-01-23T05:43:26.775Z,22.3
2018-01-23T05:44:26.726Z,22.4
2018-01-23T05:45:26.509Z,22.4
2018-01-23T05:46:26.455Z,22.4
2018-01-23T05:47:26.648Z,22.4
2018-01-23T05:48:26.405Z,22.4
2018-01-23T05:49:26.318Z,22.5
2018-01-23T05:50:26.201Z,22.6
2018-01-23T05:51:26.125Z,22.7
2018-01-23T05:52:25.992Z,22.8
2018-01-23T05:53:25.889Z,22.9
2018-01-23T05:54:25.835Z,23
2018-01-23T05:55:25.838Z,22.9
2018-01-23T05:56:25.671Z,23
2018-01-23T05:57:25.583Z,23.1
2018-01-23T05:58:25.597Z,23.2
2018-01-23T05:59:25.439Z,23.1
2018-01-23T06:00:25.416Z,22.8
2018-01-23T06:01:25.392Z,22.6
2018-01-23T06:02:25.171Z,22.5
2018-01-23T06:03:25.126Z,22.3
2018-01-23T06:04:25.032Z,22.2
2018-01-23T06:05:25.245Z,22.1
2018-01-23T06:06:24.888Z,21.9
2018-01-23T06:07:24.873Z,21.8
2018-01-23T06:08:24.739Z,21.8
2018-01-23T06:09:24.625Z,21.7
2018-01-23T06:10:24.577Z,21.6
2018-01-23T06:11:24.579Z,21.6
2018-01-23T06:12:24.527Z,21.6
2018-01-23T06:13:24.329Z,21.6
2018-01-23T06:14:24.244Z,21.6
2018-01-23T06:15:24.285Z,21.6
2018-01-23T06:16:24.085Z,21.6
2018-01-23T06:17:24.025Z,21.6
2018-01-23T06:18:24.007Z,21.6
2018-01-23T06:19:23.871Z,21.6
2018-01-23T06:20:23.798Z,21.6
2018-01-23T06:21:23.697Z,21.6
2018-01-23T06:22:23.618Z,21.7
2018-01-23T06:23:23.552Z,21.8
2018-01-23T06:24:23.458Z,21.8
2018-01-23T06:25:23.509Z,21.9
2018-01-23T06:26:23.376Z,21.9
2018-01-23T06:27:23.244Z,22.1
2018-01-23T06:28:23.144Z,22.1
2018-01-23T06:29:23.173Z,22.1
2018-01-23T06:30:23.116Z,22.1
2018-01-23T06:31:22.984Z,22.1
2018-01-23T06:32:24.233Z,22.3
2018-01-23T06:33:24.208Z,22.3
2018-01-23T06:34:24.022Z,22.3
2018-01-23T06:35:24.083Z,22.4
2018-01-23T06:36:23.877Z,22.4
2018-01-23T06:37:23.803Z,22.4
2018-01-23T06:38:24.021Z,22.4
2018-01-23T06:39:23.626Z,22.5
2018-01-23T06:40:23.583Z,22.6
2018-01-23T06:41:23.480Z,22.8
2018-01-23T06:42:23.526Z,22.9
2018-01-23T06:43:23.312Z,23.1
2018-01-23T06:44:23.567Z,23.1
2018-01-23T06:45:23.176Z,23
2018-01-23T06:46:23.088Z,23.1
2018-01-23T06:47:23.027Z,23.1
2018-01-23T06:48:22.956Z,23.2
2018-01-23T06:49:22.853Z,23
2018-01-23T06:50:22.908Z,22.8
2018-01-23T06:51:22.772Z,22.7
2018-01-23T06:52:22.644Z,22.7
2018-01-23T06:53:22.632Z,22.7
2018-01-23T06:54:22.559Z,22.6
2018-01-23T06:55:22.513Z,22.6
2018-01-23T06:56:22.288Z,22.4
2018-01-23T06:57:22.544Z,22.1
2018-01-23T06:58:22.246Z,21.9
2018-01-23T06:59:22.080Z,21.8
2018-01-23T07:00:21.987Z,21.8
2018-01-23T07:01:21.910Z,21.8
2018-01-23T07:02:21.856Z,21.9
2018-01-23T07:03:21.829Z,22
2018-01-23T07:04:21.690Z,22.2
2018-01-23T07:05:21.696Z,22.4
2018-01-23T07:06:21.535Z,22.5
2018-01-23T07:07:21.444Z,22.6
2018-01-23T07:08:21.392Z,22.7
2018-01-23T07:09:21.376Z,22.9
2018-01-23T07:10:21.203Z,23
2018-01-23T07:11:21.151Z,23.1
2018-01-23T07:12:21.121Z,23
2018-01-23T07:13:21.274Z,23.1
2018-01-23T07:14:20.875Z,23.1
2018-01-23T07:15:20.825Z,23.2
2018-01-23T07:16:20.732Z,23
2018-01-23T07:17:20.662Z,22.8
2018-01-23T07:18:20.563Z,22.7
2018-01-23T07:19:20.519Z,22.6
2018-01-23T07:20:20.404Z,22.4
2018-01-23T07:21:20.367Z,22.3
2018-01-23T07:22:20.261Z,22.3
2018-01-23T07:23:20.201Z,22.2
2018-01-23T07:24:20.101Z,22.2
2018-01-23T07:25:20.320Z,22.1
2018-01-23T07:26:19.969Z,22.1
2018-01-23T07:27:19.868Z,22.1
2018-01-23T07:28:19.808Z,22.1
2018-01-23T07:29:19.698Z,22.1
2018-01-23T07:30:19.658Z,22.1
2018-01-23T07:31:19.570Z,22.2
2018-01-23T07:32:19.478Z,22.2
2018-01-23T07:33:19.419Z,22.2
2018-01-23T07:34:19.416Z,22.3
2018-01-23T07:35:19.226Z,22.3
2018-01-23T07:36:19.179Z,22.4
2018-01-23T07:37:19.181Z,22.4
2018-01-23T07:38:19.027Z,22.5
2018-01-23T07:39:18.912Z,22.5
2018-01-23T07:40:18.863Z,22.5
2018-01-23T07:41:18.769Z,22.6
2018-01-23T07:42:18.812Z,22.6
2018-01-23T07:43:18.623Z,22.6
2018-01-23T07:44:18.539Z,22.8
2018-01-23T07:45:18.442Z,22.8
2018-01-23T07:46:18.401Z,22.9
2018-01-23T07:47:18.297Z,22.9
2018-01-23T07:48:18.233Z,22.8
2018-01-23T07:49:18.439Z,22.9
2018-01-23T07:50:18.183Z,22.9
2018-01-23T07:51:17.969Z,22.9
2018-01-23T07:52:17.913Z,22.8
2018-01-23T07:54:17.738Z,22.5
2018-01-23T07:55:17.689Z,22.4
2018-01-23T07:56:17.580Z,22.3
2018-01-23T07:57:17.531Z,22.3
2018-01-23T07:58:17.432Z,22.2
2018-01-23T07:59:17.371Z,22.1
2018-01-23T08:00:17.273Z,22.1
2018-01-23T08:01:17.218Z,22.1
2018-01-23T08:02:17.124Z,22
2018-01-23T08:03:17.114Z,22.1
2018-01-23T08:04:16.981Z,22
2018-01-23T08:05:16.881Z,22.1
2018-01-23T08:06:16.820Z,22
2018-01-23T08:07:16.712Z,22.1
2018-01-23T08:08:16.666Z,22
2018-01-23T08:09:16.665Z,22.1
2018-01-23T08:10:16.506Z,22.1
2018-01-23T08:11:16.408Z,22.1
2018-01-23T08:12:16.439Z,22.2
2018-01-23T08:13:16.563Z,22.3
2018-01-23T08:14:16.196Z,22.3
2018-01-23T08:15:16.131Z,22.4
2018-01-23T08:16:16.140Z,22.4
2018-01-23T08:17:15.939Z,22.5
2018-01-23T08:18:15.985Z,22.5
2018-01-23T08:19:15.880Z,22.5
2018-01-23T08:21:15.702Z,22.7
2018-01-23T08:22:15.555Z,22.8
2018-01-23T08:23:15.491Z,22.9
2018-01-23T08:24:15.467Z,23
2018-01-23T08:25:15.332Z,22.9
2018-01-23T08:26:15.305Z,22.8
2018-01-23T08:27:15.175Z,22.9
2018-01-23T08:28:15.176Z,22.9
2018-01-23T08:29:14.986Z,23
2018-01-23T08:30:14.939Z,22.8
2018-01-23T08:31:14.898Z,22.7
2018-01-23T08:32:15.070Z,22.6
2018-01-23T08:34:14.872Z,22.4
2018-01-23T08:35:14.546Z,22.3
2018-01-23T08:36:14.498Z,22.3
2018-01-23T08:37:14.492Z,22.2
2018-01-23T08:38:14.274Z,22.2
2018-01-23T08:39:14.231Z,22.2
2018-01-23T08:40:14.118Z,22.2
2018-01-23T08:41:14.219Z,22.2
2018-01-23T08:42:13.990Z,22.1
2018-01-23T08:43:13.911Z,22.1
2018-01-23T08:44:13.816Z,22.1
2018-01-23T08:45:13.760Z,22.2
2018-01-23T08:46:13.949Z,22.2
2018-01-23T08:47:13.602Z,22.3
2018-01-23T08:48:13.490Z,22.3
2018-01-23T08:49:13.546Z,22.3
2018-01-23T08:50:13.457Z,22.4
2018-01-23T08:51:13.253Z,22.4
2018-01-23T08:52:13.202Z,22.5
2018-01-23T08:53:13.208Z,22.5
2018-01-23T08:54:13.047Z,22.6
2018-01-23T08:55:12.955Z,22.7
2018-01-23T08:56:13.007Z,22.8
2018-01-23T08:57:12.782Z,22.9
2018-01-23T08:58:12.717Z,22.9
2018-01-23T08:59:12.651Z,22.9
2018-01-23T09:00:27.457Z,22.9
2018-01-23T09:02:12.402Z,22.9
2018-01-23T09:03:12.344Z,22.9
2018-01-23T09:04:12.230Z,22.8
2018-01-23T09:05:12.293Z,22.6
2018-01-23T09:06:12.086Z,22.5
2018-01-23T09:07:12.033Z,22.4
2018-01-23T09:08:11.917Z,22.4
2018-01-23T09:09:12.156Z,22.3
2018-01-23T09:10:11.895Z,22.3
2018-01-23T09:11:11.992Z,22.3
2018-01-23T09:12:11.668Z,22.2
2018-01-23T09:13:11.552Z,22.2
2018-01-23T09:14:11.444Z,22.2
2018-01-23T09:15:11.400Z,22.2
2018-01-23T09:16:11.287Z,22.3
2018-01-23T09:17:11.281Z,22.3
2018-01-23T09:18:11.160Z,22.3
2018-01-23T09:19:11.055Z,22.4
2018-01-23T09:20:11.118Z,22.4
2018-01-23T09:21:10.911Z,22.5
2018-01-23T09:22:10.952Z,22.6
2018-01-23T09:23:10.849Z,22.6
2018-01-23T09:25:12.752Z,22.7
2018-01-23T09:26:27.527Z,22.9
2018-01-23T09:27:12.823Z,22.9
2018-01-23T09:30:15.969Z,22.9
2018-01-23T09:31:15.682Z,23
2018-01-23T09:32:30.477Z,23
2018-01-23T09:33:35.688Z,22.9
2018-01-23T09:34:35.554Z,22.7
2018-01-23T09:35:20.568Z,22.5
2018-01-23T09:36:20.484Z,22.5
2018-01-23T09:37:20.565Z,22.4
2018-01-23T09:38:20.313Z,22.3
2018-01-23T09:39:20.290Z,22.3
2018-01-23T09:40:20.155Z,22.3
2018-01-23T09:41:20.103Z,22.3
2018-01-23T09:42:20.010Z,22.3
2018-01-23T09:43:20.040Z,22.3
2018-01-23T09:45:19.907Z,22.3
2018-01-23T09:46:19.681Z,22.3
2018-01-23T09:47:19.642Z,22.4
2018-01-23T09:48:19.537Z,22.4
2018-01-23T09:49:19.776Z,22.4
2018-01-23T09:50:19.457Z,22.5
2018-01-23T09:51:19.320Z,22.5
2018-01-23T09:52:19.236Z,22.6
2018-01-23T09:53:19.551Z,22.6
2018-01-23T09:54:19.086Z,22.7
2018-01-23T09:55:19.276Z,22.8
2018-01-23T09:56:18.934Z,22.9
2018-01-23T09:57:18.814Z,23
2018-01-23T09:58:18.879Z,22.9
2018-01-23T09:59:19.007Z,22.9
2018-01-23T10:00:18.609Z,22.9
2018-01-23T10:01:18.536Z,22.9
2018-01-23T10:02:18.436Z,23
2018-01-23T10:03:18.494Z,22.8
2018-01-23T10:04:18.488Z,22.7
2018-01-23T10:05:18.329Z,22.6
2018-01-23T10:06:18.197Z,22.5
2018-01-23T10:07:18.062Z,22.4
2018-01-23T10:08:18.094Z,22.4
2018-01-23T10:09:18.179Z,22.3
2018-01-23T10:10:17.824Z,22.3
2018-01-23T10:11:17.851Z,22.3
2018-01-23T10:12:17.646Z,22.3
2018-01-23T10:13:17.674Z,22.3
2018-01-23T10:14:17.568Z,22.3
2018-01-23T10:15:17.435Z,22.3
2018-01-23T10:16:17.318Z,22.3
2018-01-23T10:17:17.271Z,22.4
2018-01-23T10:18:17.240Z,22.4
2018-01-23T10:19:17.086Z,22.4
2018-01-23T10:20:17.035Z,22.4
2018-01-23T10:21:16.940Z,22.4
2018-01-23T10:22:16.987Z,22.5
2018-01-23T10:23:16.786Z,22.6
2018-01-23T10:24:16.726Z,22.6
2018-01-23T10:25:16.612Z,22.7
2018-01-23T10:26:16.560Z,22.8
2018-01-23T10:27:16.545Z,22.9
2018-01-23T10:28:16.412Z,23
2018-01-23T10:29:16.386Z,22.9
2018-01-23T10:30:16.362Z,22.9
2018-01-23T10:31:16.155Z,22.9
2018-01-23T10:32:16.096Z,23
2018-01-23T10:33:15.987Z,23
2018-01-23T10:34:16.036Z,22.8
2018-01-23T10:35:15.849Z,22.7
2018-01-23T10:36:15.760Z,22.6
2018-01-23T10:37:30.590Z,22.5
2018-01-23T10:38:15.588Z,22.5
2018-01-23T10:39:15.655Z,22.4
2018-01-23T10:40:15.467Z,22.4
2018-01-23T10:41:15.354Z,22.4
2018-01-23T10:42:15.415Z,22.4
2018-01-23T10:43:15.495Z,22.4
2018-01-23T10:44:15.147Z,22.4
2018-01-23T10:45:15.065Z,22.5
2018-01-23T10:46:14.959Z,22.6
2018-01-23T10:47:15.020Z,22.6
2018-01-23T10:48:14.816Z,22.7
2018-01-23T10:49:15.019Z,22.8
2018-01-23T10:50:14.648Z,22.9
2018-01-23T10:51:14.606Z,22.9
2018-01-23T10:52:14.487Z,22.8
2018-01-23T10:53:14.435Z,22.8
2018-01-23T10:54:14.617Z,22.9
2018-01-23T10:55:14.264Z,22.9
2018-01-23T10:56:14.208Z,22.8
2018-01-23T10:57:14.096Z,22.7
2018-01-23T10:58:14.050Z,22.6
2018-01-23T10:59:14.027Z,22.5
2018-01-23T11:00:14.191Z,22.4
2018-01-23T11:01:13.808Z,22.4
2018-01-23T11:02:13.701Z,22.4
2018-01-23T11:03:13.652Z,22.4
2018-01-23T11:04:13.557Z,22.4
2018-01-23T11:05:13.494Z,22.5
2018-01-23T11:06:13.402Z,22.5
2018-01-23T11:07:13.345Z,22.5
2018-01-23T11:08:13.231Z,22.5
2018-01-23T11:09:13.242Z,22.6
2018-01-23T11:10:13.097Z,22.6
2018-01-23T11:11:13.024Z,22.6
2018-01-23T11:12:13.029Z,22.8
2018-01-23T11:13:12.973Z,22.8
2018-01-23T11:14:12.759Z,22.9
2018-01-23T11:15:12.714Z,22.8
2018-01-23T11:16:12.714Z,22.8
2018-01-23T11:17:12.554Z,22.8
2018-01-23T11:18:12.446Z,22.8
2018-01-23T11:19:12.514Z,22.9
2018-01-23T11:20:12.311Z,22.8
2018-01-23T11:21:12.223Z,22.6
2018-01-23T11:22:12.165Z,22.6
2018-01-23T11:23:12.088Z,22.5
2018-01-23T11:24:11.977Z,22.4
2018-01-23T11:25:11.923Z,22.4
2018-01-23T11:26:11.833Z,22.4
2018-01-23T11:27:11.766Z,22.4
2018-01-23T11:28:11.772Z,22.4
2018-01-23T11:29:11.595Z,22.4
2018-01-23T11:30:11.531Z,22.5
2018-01-23T11:31:11.536Z,22.6
2018-01-23T11:32:11.380Z,22.6
2018-01-23T11:33:11.267Z,22.6
2018-01-23T11:34:11.336Z,22.6
2018-01-23T11:35:11.109Z,22.6
2018-01-23T11:36:11.062Z,22.7
2018-01-23T11:37:11.264Z,22.8
2018-01-23T11:38:10.995Z,22.9
2018-01-23T11:39:10.840Z,23
2018-01-23T11:40:10.751Z,22.9
2018-01-23T11:41:10.728Z,22.9
2018-01-23T11:42:10.593Z,22.9
2018-01-23T11:43:10.595Z,23
2018-01-23T11:44:10.431Z,23.1
2018-01-23T11:45:10.413Z,22.9
2018-01-23T11:46:10.415Z,22.8
2018-01-23T11:47:10.200Z,22.7
2018-01-23T11:48:10.103Z,22.6
2018-01-23T11:49:10.144Z,22.6
2018-01-23T11:50:09.928Z,22.5
2018-01-23T11:51:09.993Z,22.5
2018-01-23T11:52:09.862Z,22.5
2018-01-23T11:53:09.730Z,22.5
2018-01-23T11:54:09.743Z,22.6
2018-01-23T11:55:09.550Z,22.6
2018-01-23T11:56:09.486Z,22.6
2018-01-23T11:57:09.381Z,22.7
2018-01-23T11:58:09.334Z,22.8
2018-01-23T11:59:09.235Z,22.9
2018-01-23T12:00:09.458Z,22.8
2018-01-23T12:01:09.063Z,22.7
2018-01-23T12:02:08.999Z,22.7
2018-01-23T12:03:08.941Z,22.6
2018-01-23T12:04:08.840Z,22.6
2018-01-23T12:05:08.778Z,22.6
2018-01-23T12:06:08.734Z,22.6
2018-01-23T12:07:08.609Z,22.7
2018-01-23T12:08:08.550Z,22.7
2018-01-23T12:09:08.522Z,22.8
2018-01-23T12:10:08.391Z,22.9
2018-01-23T12:11:08.383Z,22.9
2018-01-23T12:12:08.310Z,22.8
2018-01-23T12:13:08.263Z,22.8
2018-01-23T12:14:08.042Z,22.8
2018-01-23T12:15:08.098Z,22.9
2018-01-23T12:16:07.901Z,22.9
2018-01-23T12:17:07.834Z,22.8
2018-01-23T12:18:07.742Z,22.6
2018-01-23T12:19:07.948Z,22.5
2018-01-23T12:20:07.583Z,22.5
2018-01-23T12:21:07.521Z,22.4
2018-01-23T12:22:07.412Z,22.4
2018-01-23T12:23:07.368Z,22.4
2018-01-23T12:24:07.254Z,22.5
2018-01-23T12:25:07.324Z,22.6
2018-01-23T12:26:07.114Z,22.6
2018-01-23T12:27:07.155Z,22.7
2018-01-23T12:28:07.054Z,22.8
2018-01-23T12:29:06.875Z,22.8
2018-01-23T12:30:06.812Z,22.8
2018-01-23T12:31:06.719Z,22.8
2018-01-23T12:32:06.653Z,22.6
2018-01-23T12:33:06.547Z,22.6
2018-01-23T12:34:06.613Z,22.6
2018-01-23T12:35:06.426Z,22.6
2018-01-23T12:36:06.318Z,22.6
2018-01-23T12:37:06.370Z,22.6
2018-01-23T12:38:06.176Z,22.6
2018-01-23T12:39:06.088Z,22.5
2018-01-23T12:40:06.031Z,22.5
2018-01-23T12:41:05.917Z,22.5
2018-01-23T12:42:05.868Z,22.4
2018-01-23T12:43:05.775Z,22.5
2018-01-23T12:44:05.717Z,22.5
2018-01-23T12:45:05.607Z,22.6
2018-01-23T12:46:05.644Z,22.6
2018-01-23T12:47:05.581Z,22.6
2018-01-23T12:48:05.478Z,22.7
2018-01-23T12:49:05.317Z,22.8
2018-01-23T12:50:05.322Z,22.9
2018-01-23T12:51:05.166Z,22.9
2018-01-23T12:52:05.341Z,23
2018-01-23T12:53:05.009Z,22.9
2018-01-23T12:54:05.005Z,23
2018-01-23T12:55:04.929Z,23.1
2018-01-23T12:56:05.060Z,23.1
2018-01-23T12:57:04.661Z,22.9
2018-01-23T12:58:05.286Z,22.8
2018-01-23T12:59:04.815Z,22.7
2018-01-23T13:00:04.453Z,22.6
2018-01-23T13:01:04.458Z,22.5
2018-01-23T13:02:04.280Z,22.4
2018-01-23T13:03:04.327Z,22.4
2018-01-23T13:04:04.258Z,22.4
2018-01-23T13:05:04.146Z,22.4
2018-01-23T13:06:03.983Z,22.4
2018-01-23T13:07:03.986Z,22.4
2018-01-23T13:08:03.834Z,22.4
2018-01-23T13:09:03.716Z,22.4
2018-01-23T13:10:03.666Z,22.5
2018-01-23T13:11:03.697Z,22.5
2018-01-23T13:12:03.764Z,22.5
2018-01-23T13:13:03.438Z,22.5
2018-01-23T13:14:03.326Z,22.6
2018-01-23T13:15:03.281Z,22.6
2018-01-23T13:16:03.181Z,22.7
2018-01-23T13:17:03.125Z,22.8
2018-01-23T13:18:03.030Z,22.9
2018-01-23T13:19:02.945Z,22.9
2018-01-23T13:20:02.883Z,22.8
2018-01-23T13:21:02.787Z,22.9
2018-01-23T13:22:02.731Z,22.9
2018-01-23T13:23:02.707Z,23
2018-01-23T13:24:02.684Z,22.8
2018-01-23T13:25:02.475Z,22.7
2018-01-23T13:26:02.392Z,22.6
2018-01-23T13:27:02.340Z,22.5
2018-01-23T13:28:02.225Z,22.4
2018-01-23T13:29:02.182Z,22.4
2018-01-23T13:30:02.080Z,22.4
2018-01-23T13:31:02.126Z,22.4
2018-01-23T13:32:01.940Z,22.4
2018-01-23T13:33:01.945Z,22.4
2018-01-23T13:34:01.876Z,22.4
2018-01-23T13:35:01.711Z,22.4
2018-01-23T13:36:01.876Z,22.5
2018-01-23T13:37:01.549Z,22.6
2018-01-23T13:38:01.752Z,22.6
2018-01-23T13:39:01.402Z,22.6
2018-01-23T13:40:01.281Z,22.6
2018-01-23T13:41:01.526Z,22.8
2018-01-23T13:42:01.248Z,22.8
2018-01-23T13:43:01.159Z,22.9
2018-01-23T13:44:01.000Z,22.8
2018-01-23T13:45:00.888Z,22.8
2018-01-23T13:46:00.845Z,22.8
2018-01-23T13:47:00.733Z,22.9
2018-01-23T13:48:00.791Z,22.9
2018-01-23T13:49:00.722Z,22.8
2018-01-23T13:50:00.515Z,22.6
2018-01-23T13:51:00.449Z,22.6
2018-01-23T13:52:00.335Z,22.4
2018-01-23T13:53:00.288Z,22.4
2018-01-23T13:54:00.191Z,22.4
2018-01-23T13:55:00.138Z,22.4
2018-01-23T13:56:00.027Z,22.4
2018-01-23T13:56:59.978Z,22.4
2018-01-23T13:57:59.884Z,22.4
2018-01-23T13:58:59.806Z,22.5
2018-01-23T13:59:59.724Z,22.5
2018-01-23T14:00:59.655Z,22.5
2018-01-23T14:01:59.552Z,22.5
2018-01-23T14:02:59.616Z,22.6
2018-01-23T14:03:59.392Z,22.6
2018-01-23T14:04:59.456Z,22.6
2018-01-23T14:05:59.257Z,22.6
2018-01-23T14:06:59.205Z,22.6
2018-01-23T14:07:59.112Z,22.6
2018-01-23T14:08:59.011Z,22.6
2018-01-23T14:09:58.952Z,22.7
2018-01-23T14:10:58.856Z,22.8
2018-01-23T14:11:58.901Z,22.8
2018-01-23T14:12:58.776Z,22.9
2018-01-23T14:13:58.643Z,22.9
2018-01-23T14:14:58.643Z,22.8
2018-01-23T14:15:58.770Z,22.7
2018-01-23T14:16:58.369Z,22.6
2018-01-23T14:17:58.434Z,22.6
2018-01-23T14:18:58.213Z,22.6
2018-01-23T14:19:58.603Z,22.5
2018-01-23T14:20:58.168Z,22.5
2018-01-23T14:21:58.099Z,22.5
2018-01-23T14:22:57.933Z,22.6
2018-01-23T14:23:57.931Z,22.6
2018-01-23T14:24:57.769Z,22.6
2018-01-23T14:25:57.676Z,22.6
2018-01-23T14:26:57.621Z,22.7
2018-01-23T14:27:57.593Z,22.8
2018-01-23T14:28:57.427Z,22.9
2018-01-23T14:29:57.372Z,22.8
2018-01-23T14:30:57.299Z,22.7
2018-01-23T14:31:57.204Z,22.6
2018-01-23T14:32:57.248Z,22.6
2018-01-23T14:33:57.121Z,22.6
2018-01-23T14:34:57.101Z,22.6
2018-01-23T14:35:56.895Z,22.5
2018-01-23T14:36:56.845Z,22.5
2018-01-23T14:37:56.762Z,22.5
2018-01-23T14:38:56.672Z,22.5
2018-01-23T14:39:56.639Z,22.6
2018-01-23T14:40:56.547Z,22.7
2018-01-23T14:41:56.602Z,22.8
2018-01-23T14:42:56.508Z,22.8
2018-01-23T14:43:56.462Z,22.8
2018-01-23T14:44:56.258Z,22.8
2018-01-23T14:45:56.200Z,22.6
2018-01-23T14:46:56.153Z,22.6
2018-01-23T14:47:56.065Z,22.5
2018-01-23T14:48:56.009Z,22.4
2018-01-23T14:49:56.003Z,22.4
2018-01-23T14:50:56.040Z,22.4
2018-01-23T14:51:55.785Z,22.4
2018-01-23T14:52:55.739Z,22.4
2018-01-23T14:53:55.780Z,22.5
2018-01-23T14:54:55.566Z,22.5
2018-01-23T14:55:55.688Z,22.6
2018-01-23T14:56:55.568Z,22.7
2018-01-23T14:57:55.443Z,22.8
2018-01-23T14:58:55.316Z,22.8
2018-01-23T14:59:55.230Z,22.7
2018-01-23T15:00:55.576Z,22.6
2018-01-23T15:01:55.102Z,22.6
2018-01-23T15:02:55.008Z,22.4
2018-01-23T15:03:54.968Z,22.4
2018-01-23T15:05:05.703Z,22.4
2018-01-23T15:06:05.706Z,22.4
2018-01-23T15:07:05.565Z,22.4
2018-01-23T15:08:05.574Z,22.4
2018-01-23T15:09:05.320Z,22.4
2018-01-23T15:10:05.260Z,22.4
2018-01-23T15:11:05.313Z,22.4
2018-01-23T15:12:05.418Z,22.5
2018-01-23T15:13:05.018Z,22.5
2018-01-23T15:14:05.001Z,22.6
2018-01-23T15:15:04.861Z,22.6
2018-01-23T15:16:04.798Z,22.6
2018-01-23T15:17:04.689Z,22.6
2018-01-23T15:18:04.742Z,22.6
2018-01-23T15:19:04.566Z,22.8
2018-01-23T15:20:04.460Z,22.8
2018-01-23T15:21:04.410Z,22.9
2018-01-23T15:22:04.297Z,22.8
2018-01-23T15:23:04.253Z,22.7
2018-01-23T15:24:04.152Z,22.6
2018-01-23T15:25:04.197Z,22.6
2018-01-23T15:26:04.002Z,22.5
2018-01-23T15:27:03.938Z,22.5
2018-01-23T15:28:03.825Z,22.4
2018-01-23T15:29:04.069Z,22.4
2018-01-23T15:30:03.954Z,22.4